Flight Track Log - Related Links

Times and Time Zones

All times are in EDT time to prevent confusion due to time zone crossing. See the LKF43 flight status page for this flight to view local times or setup timezone preferences in your user account.


Time Position Orientation Groundspeed Altitude Reporting Facility
EDT Latitude Longitude Course Direction KTS MPH feet Rate Location/Type
Sat 08:50:15 PM 39.5333 -104.8167 42° Northeast 194 223 7,800  Level Denver TRACON
Sat 08:51:03 PM 39.5286 -104.7644 97° East 224 258 9,700 2,312 Climbing Denver Center
Sat 08:52:04 PM 39.5933 -104.7239 26° Northeast 280 322 12,000 2,361 Climbing Denver Center
Sat 08:53:05 PM 39.6825 -104.6792 21° North 317 365 14,500 2,390 Climbing Denver Center
Sat 08:54:07 PM 39.7617 -104.6386 21° North 309 356 16,900 2,341 Climbing Denver Center
Sat 08:55:00 PM 39.9411 -104.3660 42° Northeast  Level FlightAware Approximate
Sat 08:55:08 PM 39.8453 -104.5983 20° North 301 346 19,300  Level Denver Center
Sat 08:56:09 PM 39.9203 -104.5633 20° North 289 333 21,500 1,902 Climbing Denver Center
Sat 08:57:11 PM 39.9956 -104.5258 21° North 292 336 23,200 1,707 Climbing Denver Center
Sat 08:58:12 PM 40.0786 -104.4844 21° North 305 351 25,000 1,689 Climbing Denver Center
Sat 08:59:26 PM 40.1764 -104.4358 21° North 314 361 27,000 1,556 Climbing Denver Center
Sat 09:00:27 PM 40.2597 -104.3936 21° North 321 369 28,500 1,328 Climbing Denver Center
Sat 09:01:28 PM 40.3453 -104.3514 21° North 330 380 29,700 1,171 Climbing Denver Center
Sat 09:02:30 PM 40.4331 -104.3083 20° North 336 387 30,900 1,171 Climbing Denver Center
Sat 09:03:31 PM 40.5211 -104.2628 21° North 337 388 32,100 1,131 Climbing Denver Center
Sat 09:04:32 PM 40.6033 -104.2019 29° Northeast 340 391 33,200 1,024 Climbing Denver Center
Sat 09:05:34 PM 40.6903 -104.0903 44° Northeast 358 412 34,200 878 Climbing Denver Center
Sat 09:06:35 PM 40.7617 -104.0008 43° Northeast 353 406 35,000 393 Climbing Denver Center
Sat 09:07:36 PM 40.8369 -103.9039 44° Northeast 374 430 35,000 49 Level Denver Center
Sat 09:08:38 PM 40.8914 -103.7786 60° Northeast 401 461 35,100 537 Climbing Denver Center
Sat 09:09:39 PM 40.9292 -103.6383 70° East 405 466 36,100 984 Climbing Denver Center
Sat 09:10:40 PM 40.9725 -103.5086 66° East 391 450 37,100 976 Climbing Denver Center
Sat 09:11:42 PM 41.0158 -103.3858 65° Northeast 377 434 38,100 1,024 Climbing Denver Center
Sat 09:12:43 PM 41.0611 -103.2483 66° East 367 422 39,200 885 Climbing Denver Center
Sat 09:13:44 PM 41.1006 -103.1317 66° East 364 419 39,900 541 Climbing Denver Center
Sat 09:14:45 PM 41.1467 -102.9911 66° East 371 427 40,300 341 Climbing Denver Center
Sat 09:15:47 PM 41.1864 -102.8739 66° East 386 444 40,600 293 Climbing Denver Center
Sat 09:16:48 PM 41.2306 -102.7381 67° East 391 450 40,900 197 Climbing Denver Center
Sat 09:17:49 PM 41.2794 -102.5928 66° East 405 466 41,000 49 Climbing Denver Center
Sat 09:18:50 PM 41.3308 -102.4333 67° East 418 481 41,000  Level Denver Center
Sat 09:19:52 PM 41.3758 -102.2950 67° East 424 488 41,000  Level Denver Center
Sat 09:20:53 PM 41.4225 -102.1544 66° East 431 496 41,000  Level Denver Center
Sat 09:21:54 PM 41.4742 -101.9897 67° East 432 497 41,000  Level Denver Center
Sat 09:22:55 PM 41.5211 -101.8461 66° East 438 504 41,000  Level Denver Center
Sat 09:23:57 PM 41.5661 -101.7050 67° East 433 498 41,000  Level Denver Center
Sat 09:24:58 PM 41.6192 -101.5383 67° East 434 499 41,000  Level Denver Center
Sat 09:25:59 PM 41.6508 -101.3883 74° East 438 504 41,000  Level Denver Center
Sat 09:27:01 PM 41.6722 -101.2078 81° East 441 507 41,000  Level Denver Center
Sat 09:28:02 PM 41.6911 -101.0553 81° East 435 501 41,000  Level Denver Center
Sat 09:29:03 PM 41.7103 -100.9006 81° East 438 504 41,000  Level Denver Center
Sat 09:30:04 PM 41.7342 -100.7203 80° East 439 505 41,000  Level Denver Center
Sat 09:31:06 PM 41.7522 -100.5661 81° East 438 504 41,000  Level Denver Center
Sat 09:32:07 PM 41.7706 -100.4094 81° East 441 507 41,000  Level Denver Center
Sat 09:33:08 PM 41.7919 -100.2289 81° East 441 507 41,000  Level Denver Center
Sat 09:34:21 PM 41.8131 -100.0483 81° East 440 506 41,000  Level Denver Center
Sat 09:35:34 PM 41.8339 -99.8667 81° East 441 507 41,000  Level Denver Center
Sat 09:36:36 PM 41.8567 -99.6736 81° East 438 504 41,000  Level Denver Center
Sat 09:37:11 PM 41.8683 -99.5781 81° East 436 502 41,000  Level Minneapolis Center
Sat 09:38:12 PM 41.8864 -99.4172 81° East 435 501 41,000  Level Minneapolis Center
Sat 09:39:12 PM 41.9036 -99.2561 82° East 435 501 41,000  Level Minneapolis Center
Sat 09:40:13 PM 41.9208 -99.0950 82° East 434 499 41,000  Level Minneapolis Center
Sat 09:41:14 PM 41.9386 -98.9325 82° East 437 503 41,000  Level Minneapolis Center
Sat 09:42:15 PM 41.9564 -98.7719 81° East 435 501 41,000  Level Minneapolis Center
Sat 09:43:16 PM 41.9731 -98.6108 82° East 434 499 41,000  Level Minneapolis Center
Sat 09:44:16 PM 41.9892 -98.4497 82° East 434 499 41,000  Level Minneapolis Center
Sat 09:45:17 PM 42.0064 -98.2892 82° East 433 498 41,000  Level Minneapolis Center
Sat 09:46:18 PM 42.0236 -98.1156 82° East 432 497 41,000  Level Minneapolis Center
Sat 09:47:19 PM 42.0389 -97.9547 83° East 433 498 41,000  Level Minneapolis Center
Sat 09:48:19 PM 42.0547 -97.7942 82° East 433 498 41,000  Level Minneapolis Center
Sat 09:49:20 PM 42.0703 -97.6339 82° East 433 498 41,000  Level Minneapolis Center
Sat 09:50:21 PM 42.0856 -97.4736 83° East 432 497 41,000  Level Minneapolis Center
Sat 09:51:22 PM 42.1006 -97.3106 83° East 436 502 41,000  Level Minneapolis Center
Sat 09:52:22 PM 42.1147 -97.1489 83° East 436 502 41,000  Level Minneapolis Center
Sat 09:53:23 PM 42.1297 -96.9867 83° East 436 502 41,000  Level Minneapolis Center
Sat 09:54:24 PM 42.1444 -96.8247 83° East 436 502 41,000  Level Minneapolis Center
Sat 09:55:25 PM 42.1586 -96.6614 83° East 436 502 41,000  Level Minneapolis Center
Sat 09:56:25 PM 42.1719 -96.5008 84° East 433 498 41,000  Level Minneapolis Center
Sat 09:57:26 PM 42.1858 -96.3389 83° East 433 498 41,000  Level Minneapolis Center
Sat 09:58:27 PM 42.1983 -96.1781 84° East 432 497 41,000  Level Minneapolis Center
Sat 09:59:28 PM 42.2122 -96.0161 83° East 432 497 41,000  Level Minneapolis Center
Sat 10:00:28 PM 42.2242 -95.8531 84° East 435 501 41,000  Level Minneapolis Center
Sat 10:01:29 PM 42.2367 -95.6903 84° East 435 501 41,000  Level Minneapolis Center
Sat 10:02:30 PM 42.2492 -95.5275 84° East 435 501 41,000  Level Minneapolis Center
Sat 10:03:31 PM 42.2617 -95.3675 84° East 431 496 41,000  Level Minneapolis Center
Sat 10:04:31 PM 42.2733 -95.2078 84° East 428 493 41,000  Level Minneapolis Center
Sat 10:05:32 PM 42.2856 -95.0475 84° East 429 494 41,000  Level Minneapolis Center
Sat 10:06:33 PM 42.2969 -94.8881 84° East 428 493 41,000  Level Minneapolis Center
Sat 10:07:33 PM 42.3072 -94.7289 85° East 426 490 41,000  Level Minneapolis Center
Sat 10:08:34 PM 42.3186 -94.5683 84° East 428 493 41,000  Level Minneapolis Center
Sat 10:09:35 PM 42.3286 -94.4075 85° East 429 494 41,000  Level Minneapolis Center
Sat 10:10:36 PM 42.3411 -94.2147 85° East 429 494 41,000  Level Minneapolis Center
Sat 10:11:36 PM 42.3506 -94.0733 85° East 431 496 41,000  Level Minneapolis Center
Sat 10:12:37 PM 42.3606 -93.9153 85° East 427 491 41,000  Level Minneapolis Center
Sat 10:13:38 PM 42.3694 -93.7550 86° East 430 495 41,000  Level Minneapolis Center
Sat 10:14:38 PM 42.3797 -93.5964 85° East 429 494 41,000  Level Minneapolis Center
Sat 10:15:39 PM 42.3889 -93.4369 85° East 429 494 41,000  Level Minneapolis Center
Sat 10:16:40 PM 42.3997 -93.2467 86° East 428 493 41,000  Level Minneapolis Center
Sat 10:17:47 PM 42.4083 -93.0856 86° East 430 495 41,000  Level Chicago Center
Sat 10:18:47 PM 42.4181 -92.9258 85° East 431 496 41,000  Level Chicago Center
Sat 10:19:48 PM 42.4278 -92.7675 85° East 428 493 41,000  Level Chicago Center
Sat 10:20:49 PM 42.4422 -92.6092 83° East 427 491 41,000  Level Chicago Center
Sat 10:21:49 PM 42.4567 -92.4197 84° East 428 493 41,000  Level Chicago Center
Sat 10:22:50 PM 42.4686 -92.2631 84° East 425 489 41,000  Level Chicago Center
Sat 10:23:50 PM 42.4811 -92.1061 84° East 425 489 41,000  Level Chicago Center
Sat 10:24:51 PM 42.4925 -91.9478 84° East 428 493 41,000  Level Chicago Center
Sat 10:25:52 PM 42.5050 -91.7889 84° East 431 496 41,000  Level Chicago Center
Sat 10:26:52 PM 42.5156 -91.6308 85° East 431 496 41,000  Level Chicago Center
Sat 10:27:53 PM 42.5269 -91.4728 84° East 433 498 41,000  Level Chicago Center
Sat 10:28:53 PM 42.5381 -91.3158 84° East 430 495 41,000  Level Chicago Center
Sat 10:29:54 PM 42.5508 -91.1281 85° East 425 489 41,000  Level Chicago Center
Sat 10:30:55 PM 42.5611 -90.9694 85° East 428 493 41,000 -347 Level Chicago Center
Sat 10:31:55 PM 42.5719 -90.8103 85° East 429 494 40,300 -1,190 Descending Chicago Center
Sat 10:32:56 PM 42.5817 -90.6506 85° East 430 495 38,600 -1,835 Descending Chicago Center
Sat 10:33:56 PM 42.5914 -90.4947 85° East 421 484 36,600 -1,983 Descending Chicago Center
Sat 10:34:57 PM 42.5997 -90.3389 86° East 418 481 34,600 -1,983 Descending Chicago Center
Sat 10:35:57 PM 42.6097 -90.1844 85° East 415 478 32,600 -1,934 Descending Chicago Center
Sat 10:36:58 PM 42.6181 -90.0297 86° East 415 478 30,700 -2,033 Descending Chicago Center
Sat 10:37:58 PM 42.6283 -89.8536 85° East 418 481 28,500 -2,150 Descending Chicago Center
Sat 10:38:58 PM 42.6367 -89.6964 86° East 419 482 26,400 -2,033 Descending Chicago Center
Sat 10:39:59 PM 42.6450 -89.5406 86° East 416 479 24,400 -1,983 Descending Chicago Center
Sat 10:40:59 PM 42.6536 -89.3922 85° East 402 463 22,400 -1,835 Descending Chicago Center
Sat 10:42:00 PM 42.6625 -89.2469 85° East 391 450 20,700 -1,686 Descending Chicago Center
Sat 10:43:00 PM 42.6694 -89.1036 86° East 387 445 19,000 -1,686 Descending Chicago Center
Sat 10:44:01 PM 42.6783 -88.9653 85° East 376 433 17,300 -1,686 Descending Chicago Center
Sat 10:45:01 PM 42.6869 -88.8325 85° East 363 418 15,600 -1,700 Descending Chicago Center
Sat 10:46:01 PM 42.6922 -88.7003 87° East 356 410 13,900 -1,686 Descending Chicago Center
Sat 10:47:02 PM 42.6903 -88.5719 91° East 345 397 12,200 -1,686 Descending Chicago Center
Sat 10:48:02 PM 42.6933 -88.4458 88° East 338 389 10,500 -1,587 Descending Chicago Center
Sat 10:49:03 PM 42.6661 -88.3467 110° East 299 344 9,000 -1,587 Descending Chicago Center
Sat 10:50:03 PM 42.6014 -88.2961 150° Southeast 275 316 7,300 -1,587 Descending Chicago Center
Sat 10:51:04 PM 42.5539 -88.2331 136° Southeast 244 281 5,800 -1,488 Descending Chicago Center
Sat 10:52:04 PM 42.5297 -88.1717 118° Southeast 219 252 4,300 -1,400 Descending Chicago Center
Sat 10:53:04 PM 42.5319 -88.1081 87° East 183 211 3,000 -942 Descending Chicago Center
Sat 10:54:05 PM 42.5556 -88.0419 64° Northeast 168 193 2,400 -645 Descending Chicago Center
Sat 10:55:05 PM 42.5739 -87.9919 64° Northeast 160 184 1,700 -446 Descending Chicago Center
Sat 10:56:06 PM 42.5906 -87.9453 64° Northeast 157 181 1,500 -197 Descending Chicago Center
Sat 10:58:00 PM 42.5957 -87.9278 76° East  Level Estimated

Login

Don't have an account? Register now (free) for customized features, flight alerts, and more!